M I D A S
Marine Information and Data Acquisition System
Tripno 1728 of the Zeeleeuw from 2009-07-01 08:36:45 to 2009-07-01 14:22:57
Back to CruiseResearch ActivitiesStationsMapUnderway DataData graphs

EquipmentUnitsComments
TimeDGPSUTC
LatitudeDGPSDM.mWGS84
LongitudeDGPSDM.mWGS84
SpeedMeteo Stationm/sRelative wind speed
DirectionMeteo StationdegRelative wind direction
TemperatureMeteo Stationdeg CelciusAir temperature
PressureMeteo StationPaAtmospheric pressure
HumidityMeteo Station%Relative humidity
Missing or incorrect values are displayed as -999
Metereological data collected by the RV Zeeleeuw from 2009-07-01 08:30:22 to 2009-07-01 14:34:10
                                                                                    Next 1000 lines
Time Latitude Longitude Speed Direction Temperature Pressure Humidity
2009-07-01 08:30:31 51°13.662 2°55.956 1 312 18.9 102270 79
2009-07-01 08:30:35 51°13.662 2°55.954 2.4 255 18.9 102270 78
2009-07-01 08:30:41 51°13.663 2°55.95 2.4 56 18.9 102270 78
2009-07-01 08:30:46 51°13.664 2°55.947 3 266 18.9 102270 79
2009-07-01 08:30:51 51°13.665 2°55.944 3.1 304 18.9 102270 79
2009-07-01 08:30:57 51°13.666 2°55.938 4 260 18.9 102270 77
2009-07-01 08:31:02 51°13.668 2°55.933 3.6 302 18.9 102270 77
2009-07-01 08:31:08 51°13.67 2°55.926 2 266 18.9 102270 78
2009-07-01 08:31:14 51°13.672 2°55.918 6.1 305 18.9 102270 78
2009-07-01 08:31:19 51°13.674 2°55.911 5 256 19 102270 78
2009-07-01 08:31:25 51°13.676 2°55.902 5 306 19 102270 78
2009-07-01 08:31:30 51°13.678 2°55.894 4.4 257 18.9 102270 77
2009-07-01 08:31:35 51°13.68 2°55.885 3.7 306 18.9 102270 77
2009-07-01 08:31:40 51°13.682 2°55.877 4.9 26 18.9 102270 76
2009-07-01 08:31:45 51°13.684 2°55.867 2.6 304 18.9 102270 76
2009-07-01 08:31:50 51°13.686 2°55.858 5.9 27 18.9 102260 78
2009-07-01 08:31:55 51°13.688 2°55.849 5 306 18.9 102260 78
2009-07-01 08:32:00 51°13.69 2°55.841 5.3 270 18.9 102270 78
2009-07-01 08:32:05 51°13.692 2°55.832 5.3 60 18.9 102270 78
2009-07-01 08:32:10 51°13.693 2°55.823 3.7 269 18.9 102270 78
2009-07-01 08:32:15 51°13.695 2°55.815 4.4 306 18.9 102270 78
2009-07-01 08:32:20 51°13.696 2°55.806 5.2 24 18.9 102270 77
2009-07-01 08:32:25 51°13.697 2°55.799 3.4 310 18.9 102270 77
2009-07-01 08:32:30 51°13.698 2°55.79 4.3 265 18.9 102270 78
2009-07-01 08:32:35 51°13.699 2°55.782 3.1 303 18.9 102270 78
2009-07-01 08:32:40 51°13.7 2°55.775 2.8 264 18.9 102280 77
2009-07-01 08:32:45 51°13.701 2°55.768 2.8 306 18.9 102280 77
2009-07-01 08:32:50 51°13.702 2°55.763 4.8 259 18.9 102270 78
2009-07-01 08:32:55 51°13.702 2°55.76 2.2 306 18.9 102270 78
2009-07-01 08:33:00 51°13.703 2°55.758 4.1 263 18.8 102270 77
2009-07-01 08:33:05 51°13.703 2°55.758 6.5 302 18.8 102270 77
2009-07-01 08:33:10 51°13.703 2°55.759 5.1 23 18.8 102270 76
2009-07-01 08:33:15 51°13.704 2°55.76 5.4 307 18.8 102270 76
2009-07-01 08:33:20 51°13.704 2°55.761 4.5 22 18.8 102270 76
2009-07-01 08:33:25 51°13.705 2°55.761 3.9 302 18.8 102270 76
2009-07-01 08:33:30 51°13.705 2°55.761 3.3 28 18.8 102270 78
2009-07-01 08:33:35 51°13.705 2°55.76 3.1 308 18.8 102270 78
2009-07-01 08:33:39 51°13.705 2°55.759 2.4 30 18.8 102260 78
2009-07-01 08:33:44 51°13.704 2°55.758 2.2 305 18.8 102260 78
2009-07-01 08:33:49 51°13.704 2°55.755 2.7 253 18.8 102260 78
2009-07-01 08:33:54 51°13.703 2°55.753 3.3 303 18.8 102260 78
2009-07-01 08:33:59 51°13.702 2°55.751 3.4 23 18.8 102270 78
2009-07-01 08:34:04 51°13.701 2°55.749 2.4 305 18.8 102270 78
2009-07-01 08:34:09 51°13.701 2°55.747 2.9 245 18.8 102260 78
2009-07-01 08:34:14 51°13.701 2°55.746 4.3 303 18.8 102260 78
2009-07-01 08:34:19 51°13.702 2°55.746 5.4 315 18.8 102270 78
2009-07-01 08:34:24 51°13.703 2°55.747 4.7 307 18.8 102270 78
2009-07-01 08:34:29 51°13.705 2°55.748 3.9 323 18.8 102260 78
2009-07-01 08:34:34 51°13.708 2°55.749 6 325 18.8 102260 78
2009-07-01 08:34:38 51°13.71 2°55.749 5.8 338 18.8 102260 79
2009-07-01 08:34:43 51°13.714 2°55.75 5.7 337 18.8 102260 79
2009-07-01 08:34:48 51°13.718 2°55.749 5.6 337 18.8 102260 78
2009-07-01 08:34:53 51°13.722 2°55.748 5.2 341 18.8 102260 78
2009-07-01 08:34:58 51°13.726 2°55.746 5.5 343 18.8 102250 77
2009-07-01 08:35:03 51°13.731 2°55.743 6.1 339 18.8 102250 77
2009-07-01 08:35:07 51°13.734 2°55.74 4.5 343 18.8 102260 76
2009-07-01 08:35:12 51°13.74 2°55.736 8.1 344 18.8 102260 76
2009-07-01 08:35:17 51°13.746 2°55.73 7.6 345 18.7 102260 76
2009-07-01 08:35:22 51°13.752 2°55.725 7.9 350 18.7 102260 76
2009-07-01 08:35:27 51°13.76 2°55.718 8.3 349 18.7 102260 76
2009-07-01 08:35:32 51°13.767 2°55.71 8 352 18.7 102260 76
2009-07-01 08:35:37 51°13.775 2°55.703 7.3 350 18.6 102260 78
2009-07-01 08:35:42 51°13.784 2°55.694 6.1 357 18.6 102260 78
2009-07-01 08:35:46 51°13.791 2°55.688 7.5 336 18.6 102250 78
2009-07-01 08:35:51 51°13.8 2°55.679 6.9 341 18.6 102250 78
2009-07-01 08:35:56 51°13.809 2°55.671 6.7 333 18.6 102250 78
2009-07-01 08:36:01 51°13.819 2°55.662 5.8 342 18.6 102250 78
2009-07-01 08:36:06 51°13.829 2°55.652 10.1 348 18.5 102260 79
2009-07-01 08:36:11 51°13.839 2°55.643 9.8 350 18.5 102260 79
2009-07-01 08:36:17 51°13.852 2°55.631 9.2 351 18.5 102260 78
2009-07-01 08:36:22 51°13.863 2°55.621 9.6 353 18.5 102260 78
2009-07-01 08:36:27 51°13.874 2°55.612 8.9 347 18.4 102260 78
2009-07-01 08:36:32 51°13.884 2°55.603 9.2 345 18.4 102260 78
2009-07-01 08:36:37 51°13.895 2°55.593 8.5 346 18.4 102250 79
2009-07-01 08:36:42 51°13.906 2°55.584 8.7 346 18.4 102250 79
2009-07-01 08:36:47 51°13.917 2°55.574 8.4 348 18.4 102250 80
2009-07-01 08:36:53 51°13.93 2°55.563 8.4 344 18.4 102250 80
2009-07-01 08:36:58 51°13.941 2°55.554 7.7 343 18.3 102250 79
2009-07-01 08:37:05 51°13.956 2°55.541 7.5 344 18.3 102250 79
2009-07-01 08:37:10 51°13.967 2°55.532 7.4 347 18.3 102250 79
2009-07-01 08:37:15 51°13.978 2°55.523 7.3 343 18.3 102250 79
2009-07-01 08:37:19 51°13.987 2°55.516 7 346 18.2 102250 80
2009-07-01 08:37:24 51°13.998 2°55.507 6.7 346 18.2 102250 80
2009-07-01 08:37:29 51°14.009 2°55.498 7.2 345 18.2 102250 80
2009-07-01 08:37:34 51°14.02 2°55.489 7.9 344 18.2 102250 80
2009-07-01 08:37:39 51°14.031 2°55.481 8.5 344 18.2 102250 80
2009-07-01 08:37:44 51°14.042 2°55.472 8.8 347 18.2 102250 80
2009-07-01 08:37:49 51°14.053 2°55.464 7.4 344 18.2 102260 80
2009-07-01 08:37:54 51°14.064 2°55.455 7.4 342 18.2 102260 80
2009-07-01 08:37:58 51°14.073 2°55.448 7.8 346 18.2 102260 80
2009-07-01 08:38:03 51°14.084 2°55.439 8 345 18.2 102260 80
2009-07-01 08:38:08 51°14.095 2°55.431 7.1 348 18.2 102260 81
2009-07-01 08:38:13 51°14.106 2°55.422 7.1 342 18.2 102260 81
2009-07-01 08:38:18 51°14.117 2°55.414 6.7 350 18.1 102260 80
2009-07-01 08:38:22 51°14.126 2°55.407 6.7 348 18.1 102260 80
2009-07-01 08:38:27 51°14.137 2°55.398 6.2 343 18.1 102260 79
2009-07-01 08:38:32 51°14.148 2°55.389 7.4 351 18.1 102260 79
2009-07-01 08:38:37 51°14.158 2°55.379 7 349 18.1 102260 79
2009-07-01 08:38:42 51°14.169 2°55.369 6.9 351 18.1 102260 79
2009-07-01 08:38:47 51°14.179 2°55.358 7.2 346 18.1 102260 80
2009-07-01 08:38:51 51°14.187 2°55.349 7.2 350 18.1 102260 80
2009-07-01 08:38:56 51°14.197 2°55.338 5.8 350 18.1 102260 80
2009-07-01 08:39:02 51°14.209 2°55.323 6.8 349 18.1 102260 80
2009-07-01 08:39:06 51°14.217 2°55.313 6.6 353 18.1 102260 80
2009-07-01 08:39:11 51°14.226 2°55.3 6.2 351 18.1 102260 80
2009-07-01 08:39:16 51°14.235 2°55.287 5.8 353 18 102270 79
2009-07-01 08:39:22 51°14.245 2°55.27 5.9 354 18 102270 79
2009-07-01 08:39:26 51°14.252 2°55.258 6.2 354 18 102270 80
2009-07-01 08:39:31 51°14.26 2°55.243 6.5 354 18 102270 80
2009-07-01 08:39:36 51°14.269 2°55.229 5.5 356 18 102260 82
2009-07-01 08:39:41 51°14.277 2°55.214 5.7 356 18 102260 82
2009-07-01 08:39:46 51°14.285 2°55.199 5.1 354 18 102270 80
2009-07-01 08:39:51 51°14.294 2°55.185 5.8 354 18 102270 80
2009-07-01 08:39:56 51°14.302 2°55.17 5.9 356 17.9 102270 80
2009-07-01 08:40:01 51°14.31 2°55.155 6.6 352 17.9 102270 80
2009-07-01 08:40:06 51°14.319 2°55.14 7.1 352 17.9 102270 81
2009-07-01 08:40:11 51°14.327 2°55.126 5.9 352 17.9 102270 81
2009-07-01 08:40:16 51°14.336 2°55.111 6.2 353 17.9 102270 80
2009-07-01 08:40:22 51°14.347 2°55.094 6 350 17.9 102270 80
2009-07-01 08:40:26 51°14.354 2°55.083 6.8 352 17.9 102260 82
2009-07-01 08:40:30 51°14.361 2°55.072 6.9 352 17.9 102260 82
2009-07-01 08:40:36 51°14.372 2°55.056 7 354 17.8 102260 81
2009-07-01 08:40:42 51°14.384 2°55.041 7 352 17.8 102260 81
2009-07-01 08:40:46 51°14.392 2°55.031 6.9 353 17.8 102260 80
2009-07-01 08:40:50 51°14.4 2°55.022 7.4 353 17.8 102260 80
2009-07-01 08:40:56 51°14.413 2°55.007 7.8 351 17.8 102270 80
2009-07-01 08:41:02 51°14.426 2°54.994 7.3 352 17.8 102270 80
2009-07-01 08:41:06 51°14.435 2°54.984 7.2 354 17.8 102260 80
2009-07-01 08:41:11 51°14.446 2°54.973 7.2 354 17.8 102260 80
2009-07-01 08:41:16 51°14.457 2°54.962 7.6 355 17.8 102260 81
2009-07-01 08:41:21 51°14.468 2°54.951 7 354 17.8 102260 81
2009-07-01 08:41:26 51°14.48 2°54.94 6.8 351 17.8 102260 82
2009-07-01 08:41:31 51°14.492 2°54.929 7.6 351 17.8 102260 82
2009-07-01 08:41:36 51°14.503 2°54.918 8.7 351 17.7 102260 82
2009-07-01 08:41:42 51°14.518 2°54.903 7.6 349 17.7 102260 82
2009-07-01 08:41:46 51°14.528 2°54.894 7.7 351 17.7 102260 82
2009-07-01 08:41:51 51°14.541 2°54.882 8.5 348 17.7 102260 82
2009-07-01 08:41:56 51°14.553 2°54.87 9.2 348 17.7 102260 81
2009-07-01 08:42:01 51°14.566 2°54.858 9.5 349 17.7 102260 81
2009-07-01 08:42:06 51°14.578 2°54.847 9.9 350 17.7 102260 81
2009-07-01 08:42:11 51°14.591 2°54.835 7.4 349 17.7 102260 81
2009-07-01 08:42:16 51°14.604 2°54.823 9.6 347 17.7 102260 82
2009-07-01 08:42:21 51°14.618 2°54.811 8.9 347 17.7 102260 82
2009-07-01 08:42:26 51°14.631 2°54.798 10.2 346 17.7 102260 83
2009-07-01 08:42:31 51°14.644 2°54.786 8.8 346 17.7 102260 83
2009-07-01 08:42:36 51°14.658 2°54.773 8.8 348 17.7 102250 82
2009-07-01 08:42:42 51°14.674 2°54.759 8.4 348 17.7 102250 82
2009-07-01 08:42:46 51°14.685 2°54.749 9.5 345 17.6 102260 81
2009-07-01 08:42:50 51°14.696 2°54.739 8.8 346 17.6 102260 81
2009-07-01 08:42:56 51°14.712 2°54.724 8.5 346 17.7 102260 82
2009-07-01 08:43:01 51°14.726 2°54.711 8.4 344 17.7 102260 82
2009-07-01 08:43:06 51°14.739 2°54.698 8.7 344 17.6 102260 81
2009-07-01 08:43:11 51°14.752 2°54.686 9.5 346 17.6 102260 81
2009-07-01 08:43:16 51°14.766 2°54.673 8.6 346 17.6 102250 81
2009-07-01 08:43:22 51°14.782 2°54.658 9.5 347 17.6 102250 81
2009-07-01 08:43:26 51°14.793 2°54.648 9.6 347 17.6 102260 81
2009-07-01 08:43:31 51°14.807 2°54.635 8.2 345 17.6 102260 81
2009-07-01 08:43:36 51°14.82 2°54.622 9 345 17.6 102260 83
2009-07-01 08:43:41 51°14.834 2°54.609 8.9 346 17.6 102260 83
2009-07-01 08:43:46 51°14.847 2°54.597 8.7 344 17.6 102260 83
2009-07-01 08:43:51 51°14.861 2°54.585 8.5 349 17.6 102260 83
2009-07-01 08:43:56 51°14.875 2°54.572 10 348 17.6 102260 82
2009-07-01 08:44:01 51°14.889 2°54.559 8.7 347 17.6 102260 82
2009-07-01 08:44:06 51°14.902 2°54.547 9.5 348 17.6 102260 81
2009-07-01 08:44:11 51°14.915 2°54.535 9.8 349 17.6 102260 81
2009-07-01 08:44:15 51°14.926 2°54.526 8.5 347 17.6 102260 83
2009-07-01 08:44:21 51°14.943 2°54.512 9.2 349 17.6 102260 83
2009-07-01 08:44:26 51°14.957 2°54.501 9.2 349 17.6 102260 82
2009-07-01 08:44:31 51°14.971 2°54.488 10.7 349 17.6 102260 82
2009-07-01 08:44:36 51°14.985 2°54.476 9.5 349 17.6 102260 82
2009-07-01 08:44:41 51°14.999 2°54.464 9.2 347 17.6 102260 82
2009-07-01 08:44:46 51°15.013 2°54.452 10.2 348 17.6 102260 83
2009-07-01 08:44:51 51°15.027 2°54.439 9.1 349 17.6 102260 83
2009-07-01 08:44:56 51°15.041 2°54.426 8.8 348 17.6 102260 82
2009-07-01 08:45:01 51°15.054 2°54.412 9.6 349 17.6 102260 82
2009-07-01 08:45:06 51°15.068 2°54.399 9.9 351 17.6 102250 83
2009-07-01 08:45:11 51°15.082 2°54.386 10.4 350 17.6 102250 83
2009-07-01 08:45:16 51°15.095 2°54.372 9.6 349 17.5 102260 82
2009-07-01 08:45:22 51°15.111 2°54.357 8.3 350 17.5 102260 82
2009-07-01 08:45:26 51°15.122 2°54.346 7.8 350 17.5 102260 82
2009-07-01 08:45:31 51°15.135 2°54.333 9.1 350 17.5 102260 82
2009-07-01 08:45:36 51°15.149 2°54.32 9 351 17.5 102260 82
2009-07-01 08:45:42 51°15.165 2°54.304 8.5 353 17.5 102260 82
2009-07-01 08:45:46 51°15.176 2°54.293 8.5 354 17.5 102260 82
2009-07-01 08:45:51 51°15.189 2°54.279 9.2 355 17.5 102260 82
2009-07-01 08:45:56 51°15.202 2°54.266 8.6 356 17.5 102270 82
2009-07-01 08:46:02 51°15.219 2°54.251 8 355 17.5 102270 82
2009-07-01 08:46:06 51°15.229 2°54.24 7.7 353 17.5 102260 81
2009-07-01 08:46:11 51°15.243 2°54.228 7.5 356 17.5 102260 81
2009-07-01 08:46:16 51°15.257 2°54.215 7.5 355 17.5 102270 83
2009-07-01 08:46:22 51°15.273 2°54.2 8.6 352 17.5 102270 83
2009-07-01 08:46:26 51°15.284 2°54.189 9.3 355 17.5 102270 82
2009-07-01 08:46:31 51°15.298 2°54.177 8.4 357 17.5 102270 82
2009-07-01 08:46:36 51°15.312 2°54.164 8.2 357 17.4 102270 82
2009-07-01 08:46:41 51°15.326 2°54.151 7.9 356 17.4 102270 82
2009-07-01 08:46:46 51°15.339 2°54.138 7.9 355 17.5 102270 82
2009-07-01 08:46:51 51°15.353 2°54.126 8.8 355 17.5 102270 82
2009-07-01 08:46:55 51°15.365 2°54.116 8.4 356 17.4 102260 82
2009-07-01 08:47:01 51°15.381 2°54.101 8.1 357 17.4 102260 82
2009-07-01 08:47:06 51°15.395 2°54.088 8.7 356 17.5 102270 83
2009-07-01 08:47:11 51°15.409 2°54.076 8.3 355 17.5 102270 83
2009-07-01 08:47:16 51°15.423 2°54.063 8.7 355 17.5 102270 83
2009-07-01 08:47:22 51°15.439 2°54.048 8.1 355 17.5 102270 83
2009-07-01 08:47:26 51°15.45 2°54.038 8.7 353 17.5 102270 83
2009-07-01 08:47:31 51°15.464 2°54.026 8 354 17.5 102270 83
2009-07-01 08:47:36 51°15.478 2°54.013 10.5 354 17.5 102270 83
2009-07-01 08:47:41 51°15.492 2°54.001 9.8 355 17.5 102270 83
2009-07-01 08:47:46 51°15.506 2°53.988 9.8 355 17.5 102260 83
2009-07-01 08:47:51 51°15.519 2°53.976 9.6 353 17.5 102260 83
2009-07-01 08:47:56 51°15.533 2°53.964 9.6 353 17.5 102270 82
2009-07-01 08:48:01 51°15.547 2°53.951 10.3 353 17.5 102270 82
2009-07-01 08:48:06 51°15.561 2°53.939 10.4 353 17.5 102260 83
2009-07-01 08:48:11 51°15.575 2°53.927 9.3 350 17.5 102260 83
2009-07-01 08:48:16 51°15.588 2°53.915 11.8 349 17.5 102260 82
2009-07-01 08:48:22 51°15.605 2°53.9 9.2 350 17.5 102260 82
2009-07-01 08:48:26 51°15.616 2°53.891 10.5 349 17.5 102270 83
2009-07-01 08:48:30 51°15.627 2°53.881 10.9 280 17.5 102270 83
2009-07-01 08:48:36 51°15.644 2°53.867 10.9 350 17.5 102270 83
2009-07-01 08:48:41 51°15.658 2°53.855 9.3 350 17.5 102270 83
2009-07-01 08:48:46 51°15.672 2°53.843 9.2 351 17.5 102260 83
2009-07-01 08:48:50 51°15.683 2°53.832 11 350 17.5 102260 83
2009-07-01 08:48:56 51°15.699 2°53.818 9.6 348 17.5 102260 82
2009-07-01 08:49:01 51°15.713 2°53.807 11.2 348 17.5 102260 82
2009-07-01 08:49:06 51°15.728 2°53.796 10.6 348 17.4 102260 82
2009-07-01 08:49:11 51°15.742 2°53.784 10.8 348 17.4 102260 82
2009-07-01 08:49:16 51°15.756 2°53.773 11.1 348 17.5 102260 82
2009-07-01 08:49:21 51°15.77 2°53.761 10.8 348 17.5 102260 82
2009-07-01 08:49:26 51°15.784 2°53.749 9.2 348 17.4 102260 83
2009-07-01 08:49:31 51°15.798 2°53.738 10.5 349 17.4 102260 83
2009-07-01 08:49:36 51°15.813 2°53.726 8.7 349 17.4 102260 82
2009-07-01 08:49:42 51°15.83 2°53.712 9.1 347 17.4 102260 82
2009-07-01 08:49:46 51°15.841 2°53.703 10.2 347 17.4 102260 82
2009-07-01 08:49:51 51°15.855 2°53.691 8.3 348 17.4 102260 82
2009-07-01 08:49:56 51°15.87 2°53.68 10 349 17.4 102260 82
2009-07-01 08:50:02 51°15.887 2°53.666 9.7 348 17.4 102260 82
2009-07-01 08:50:06 51°15.898 2°53.657 8.3 350 17.4 102270 80
2009-07-01 08:50:11 51°15.912 2°53.645 8.9 348 17.4 102270 80
2009-07-01 08:50:16 51°15.926 2°53.633 9.8 351 17.4 102270 82
2009-07-01 08:50:22 51°15.943 2°53.619 7.2 348 17.4 102270 82
2009-07-01 08:50:26 51°15.954 2°53.61 7.4 348 17.4 102270 81
2009-07-01 08:50:31 51°15.968 2°53.598 9.1 279 17.4 102270 81
2009-07-01 08:50:36 51°15.983 2°53.586 9.1 350 17.4 102270 81
2009-07-01 08:50:41 51°15.997 2°53.575 7.8 349 17.4 102270 81
2009-07-01 08:50:46 51°16.011 2°53.563 8.9 351 17.4 102270 82
2009-07-01 08:50:50 51°16.022 2°53.554 8.3 352 17.4 102270 82
2009-07-01 08:50:56 51°16.039 2°53.539 9.1 351 17.4 102270 82
2009-07-01 08:51:01 51°16.053 2°53.527 9.3 349 17.4 102270 82
2009-07-01 08:51:06 51°16.067 2°53.516 9 349 17.4 102280 81
2009-07-01 08:51:11 51°16.08 2°53.504 9.6 350 17.4 102280 81
2009-07-01 08:51:16 51°16.094 2°53.491 9.4 351 17.4 102270 82
2009-07-01 08:51:21 51°16.108 2°53.479 9.6 350 17.4 102270 82
2009-07-01 08:51:26 51°16.122 2°53.467 9.6 347 17.4 102270 82
2009-07-01 08:51:31 51°16.136 2°53.455 9.1 348 17.4 102270 82
2009-07-01 08:51:36 51°16.149 2°53.443 9 349 17.4 102270 82
2009-07-01 08:51:41 51°16.163 2°53.43 8.9 350 17.4 102270 82
2009-07-01 08:51:46 51°16.177 2°53.419 10.1 348 17.5 102270 82
2009-07-01 08:51:52 51°16.194 2°53.405 11 346 17.5 102270 82
2009-07-01 08:51:56 51°16.205 2°53.395 11.3 347 17.5 102270 81
2009-07-01 08:52:01 51°16.219 2°53.382 8.8 347 17.5 102270 81
2009-07-01 08:52:06 51°16.232 2°53.37 9.1 347 17.5 102270 81
2009-07-01 08:52:11 51°16.246 2°53.357 9.5 346 17.5 102270 81
2009-07-01 08:52:17 51°16.262 2°53.341 8.7 348 17.5 102270 83
2009-07-01 08:52:21 51°16.273 2°53.332 8.8 346 17.5 102270 83
2009-07-01 08:52:26 51°16.287 2°53.319 10.4 347 17.4 102270 81
2009-07-01 08:52:31 51°16.3 2°53.307 11 281 17.4 102270 81
2009-07-01 08:52:37 51°16.317 2°53.293 11.4 346 17.4 102270 82
2009-07-01 08:52:42 51°16.331 2°53.281 10.6 346 17.4 102270 82
2009-07-01 08:52:46 51°16.342 2°53.272 8.6 347 17.4 102270 82
2009-07-01 08:52:51 51°16.356 2°53.259 8.9 348 17.4 102270 82
2009-07-01 08:52:56 51°16.37 2°53.248 9.3 345 17.4 102270 83
2009-07-01 08:53:02 51°16.387 2°53.234 9.5 348 17.4 102270 83
2009-07-01 08:53:06 51°16.399 2°53.224 10.4 348 17.4 102270 81
2009-07-01 08:53:10 51°16.41 2°53.215 8.3 348 17.4 102270 81
2009-07-01 08:53:16 51°16.427 2°53.201 8.2 346 17.4 102270 83
2009-07-01 08:53:22 51°16.444 2°53.187 11.2 350 17.4 102270 83
2009-07-01 08:53:26 51°16.455 2°53.178 9.3 349 17.4 102270 83
2009-07-01 08:53:30 51°16.466 2°53.168 11.8 348 17.4 102270 83
2009-07-01 08:53:36 51°16.483 2°53.154 11.6 348 17.4 102270 81
2009-07-01 08:53:41 51°16.497 2°53.142 11.1 347 17.4 102270 81
2009-07-01 08:53:46 51°16.511 2°53.131 10.4 347 17.4 102270 81
2009-07-01 08:53:50 51°16.522 2°53.122 10.8 347 17.4 102270 81
2009-07-01 08:53:56 51°16.539 2°53.107 9.1 346 17.4 102270 81
2009-07-01 08:54:01 51°16.553 2°53.096 9.4 345 17.4 102270 81
2009-07-01 08:54:06 51°16.567 2°53.084 9 346 17.4 102270 82
2009-07-01 08:54:11 51°16.581 2°53.072 9.7 346 17.4 102270 82
2009-07-01 08:54:16 51°16.596 2°53.06 11 346 17.4 102270 82
2009-07-01 08:54:21 51°16.61 2°53.048 9.2 348 17.4 102270 82
2009-07-01 08:54:26 51°16.623 2°53.036 8.8 347 17.3 102270 82
2009-07-01 08:54:31 51°16.637 2°53.024 8.6 346 17.3 102270 82
2009-07-01 08:54:36 51°16.651 2°53.011 10.1 345 17.3 102280 82
2009-07-01 08:54:41 51°16.665 2°52.999 10.8 347 17.3 102280 82
2009-07-01 08:54:46 51°16.679 2°52.987 10 345 17.3 102270 81
2009-07-01 08:54:51 51°16.693 2°52.975 9 348 17.3 102270 81
2009-07-01 08:54:56 51°16.707 2°52.963 10.2 347 17.3 102280 82
2009-07-01 08:55:02 51°16.723 2°52.948 9.7 346 17.3 102280 82
2009-07-01 08:55:06 51°16.735 2°52.939 8.3 346 17.3 102280 81
2009-07-01 08:55:11 51°16.749 2°52.927 8.8 347 17.3 102280 81
2009-07-01 08:55:15 51°16.76 2°52.918 7.7 345 17.3 102270 81
2009-07-01 08:55:22 51°16.779 2°52.902 8.4 347 17.3 102270 81
2009-07-01 08:55:26 51°16.791 2°52.892 7.9 348 17.3 102280 81
2009-07-01 08:55:31 51°16.805 2°52.88 7.8 348 17.3 102280 81
2009-07-01 08:55:36 51°16.819 2°52.868 7.6 347 17.3 102280 82
2009-07-01 08:55:41 51°16.833 2°52.856 7.8 346 17.3 102280 82
2009-07-01 08:55:46 51°16.847 2°52.844 8.5 348 17.3 102280 82
2009-07-01 08:55:51 51°16.86 2°52.833 10.9 346 17.3 102280 82
2009-07-01 08:55:56 51°16.875 2°52.821 9.6 348 17.3 102280 82
2009-07-01 08:56:01 51°16.889 2°52.809 11.2 349 17.3 102280 82
2009-07-01 08:56:06 51°16.903 2°52.797 9.6 349 17.3 102280 81
2009-07-01 08:56:10 51°16.914 2°52.787 9.6 349 17.3 102280 81
2009-07-01 08:56:16 51°16.931 2°52.773 10.8 347 17.3 102280 81
2009-07-01 08:56:22 51°16.947 2°52.758 8.9 348 17.3 102280 81
2009-07-01 08:56:26 51°16.959 2°52.748 10.9 346 17.3 102280 82
2009-07-01 08:56:30 51°16.97 2°52.739 11.8 283 17.3 102280 82
2009-07-01 08:56:36 51°16.987 2°52.724 11.3 347 17.2 102280 81
2009-07-01 08:56:41 51°17.001 2°52.712 10.7 347 17.2 102280 81
2009-07-01 08:56:46 51°17.015 2°52.7 9.7 349 17.3 102280 81
2009-07-01 08:56:51 51°17.029 2°52.688 10.1 348 17.3 102280 81
2009-07-01 08:56:56 51°17.043 2°52.676 11 344 17.2 102280 81
2009-07-01 08:57:01 51°17.057 2°52.664 10.9 345 17.2 102280 81
2009-07-01 08:57:06 51°17.071 2°52.653 9.7 345 17.2 102280 81
2009-07-01 08:57:11 51°17.085 2°52.641 9.3 345 17.2 102280 81
2009-07-01 08:57:17 51°17.102 2°52.627 9.7 346 17.2 102280 82
2009-07-01 08:57:22 51°17.116 2°52.615 9 346 17.2 102280 82
2009-07-01 08:57:26 51°17.128 2°52.605 10.4 346 17.2 102280 81
2009-07-01 08:57:31 51°17.142 2°52.593 8.8 344 17.2 102280 81
2009-07-01 08:57:36 51°17.156 2°52.58 8.3 345 17.2 102280 81
2009-07-01 08:57:42 51°17.172 2°52.565 8.9 344 17.2 102280 81
2009-07-01 08:57:46 51°17.183 2°52.555 7.6 346 17.2 102280 80
2009-07-01 08:57:51 51°17.197 2°52.542 7.6 346 17.2 102280 80
2009-07-01 08:57:56 51°17.211 2°52.53 8.3 345 17.2 102280 80
2009-07-01 08:58:01 51°17.225 2°52.517 7.1 347 17.2 102280 80
2009-07-01 08:58:06 51°17.238 2°52.504 8.5 347 17.2 102280 81
2009-07-01 08:58:11 51°17.252 2°52.491 7.2 348 17.2 102280 81
2009-07-01 08:58:16 51°17.266 2°52.479 8.5 345 17.1 102290 80
2009-07-01 08:58:21 51°17.28 2°52.466 8.9 348 17.1 102290 80
2009-07-01 08:58:26 51°17.294 2°52.454 8.9 350 17.2 102290 82
2009-07-01 08:58:31 51°17.308 2°52.441 7.9 277 17.2 102290 82
2009-07-01 08:58:36 51°17.322 2°52.429 8.8 350 17.1 102280 82
2009-07-01 08:58:42 51°17.339 2°52.414 7.1 351 17.1 102280 82
2009-07-01 08:58:46 51°17.35 2°52.404 8 349 17.2 102280 80
2009-07-01 08:58:51 51°17.364 2°52.392 8.8 346 17.2 102280 80
2009-07-01 08:58:56 51°17.379 2°52.38 9.1 350 17.2 102290 80
2009-07-01 08:59:02 51°17.396 2°52.366 9.8 350 17.2 102290 80
2009-07-01 08:59:06 51°17.407 2°52.356 9.2 349 17.2 102290 80
2009-07-01 08:59:11 51°17.422 2°52.345 10.5 349 17.2 102290 80
2009-07-01 08:59:17 51°17.439 2°52.331 9.1 350 17.2 102290 81
2009-07-01 08:59:22 51°17.454 2°52.32 10 348 17.2 102290 81
2009-07-01 08:59:26 51°17.466 2°52.313 9.6 349 17.2 102290 81
2009-07-01 08:59:31 51°17.481 2°52.307 10.1 347 17.2 102290 81
2009-07-01 08:59:36 51°17.496 2°52.298 9.7 349 17.2 102270 81
2009-07-01 08:59:42 51°17.515 2°52.292 9.8 348 17.2 102270 81
2009-07-01 08:59:46 51°17.528 2°52.286 9.3 347 17.2 102270 80
2009-07-01 08:59:51 51°17.544 2°52.281 10.1 345 17.2 102270 80
2009-07-01 08:59:56 51°17.559 2°52.275 10.4 347 17.2 102280 82
2009-07-01 09:00:02 51°17.578 2°52.271 9.8 345 17.2 102280 82
2009-07-01 09:00:06 51°17.591 2°52.269 11.4 345 17.2 102280 82
2009-07-01 09:00:11 51°17.607 2°52.268 11.1 343 17.2 102280 82
2009-07-01 09:00:16 51°17.623 2°52.266 11.1 344 17.2 102280 82
2009-07-01 09:00:22 51°17.643 2°52.267 10.8 343 17.2 102280 82
2009-07-01 09:00:26 51°17.655 2°52.267 10.1 340 17.2 102280 82
2009-07-01 09:00:31 51°17.672 2°52.269 10.5 276 17.2 102280 82
2009-07-01 09:00:36 51°17.688 2°52.27 11.6 341 17.2 102280 81
2009-07-01 09:00:42 51°17.707 2°52.274 10.5 340 17.2 102280 81
2009-07-01 09:00:46 51°17.72 2°52.276 11.7 339 17.2 102270 82
2009-07-01 09:00:51 51°17.737 2°52.278 11.6 338 17.2 102270 82
2009-07-01 09:00:56 51°17.753 2°52.281 12.2 335 17.2 102270 82
2009-07-01 09:01:01 51°17.769 2°52.284 12.1 337 17.2 102270 82
2009-07-01 09:01:06 51°17.786 2°52.288 11.4 337 17.3 102280 82
2009-07-01 09:01:11 51°17.802 2°52.291 12.7 339 17.3 102280 82
2009-07-01 09:01:17 51°17.821 2°52.296 11.9 337 17.3 102280 81
2009-07-01 09:01:22 51°17.838 2°52.299 11 339 17.3 102280 81
2009-07-01 09:01:26 51°17.85 2°52.302 10.7 339 17.3 102290 82
2009-07-01 09:01:31 51°17.867 2°52.305 12.5 283 17.3 102290 82
2009-07-01 09:01:37 51°17.886 2°52.31 12.3 340 17.3 102270 82
2009-07-01 09:01:42 51°17.903 2°52.314 12.4 338 17.3 102270 82
2009-07-01 09:01:46 51°17.916 2°52.316 10.8 339 17.3 102280 82
2009-07-01 09:01:50 51°17.929 2°52.319 11.1 339 17.3 102280 82
2009-07-01 09:01:56 51°17.949 2°52.323 11.6 339 17.3 102280 81
2009-07-01 09:02:02 51°17.968 2°52.328 10.6 339 17.3 102280 81
2009-07-01 09:02:06 51°17.981 2°52.331 12.2 339 17.3 102280 82
2009-07-01 09:02:10 51°17.994 2°52.334 12 337 17.3 102280 82
2009-07-01 09:02:16 51°18.014 2°52.338 11.7 337 17.3 102270 81
2009-07-01 09:02:21 51°18.03 2°52.342 10.9 338 17.3 102270 81
2009-07-01 09:02:26 51°18.047 2°52.346 12.5 338 17.3 102270 82
2009-07-01 09:02:30 51°18.06 2°52.349 12.7 340 17.3 102270 82
2009-07-01 09:02:36 51°18.079 2°52.353 12.1 339 17.3 102280 82
2009-07-01 09:02:41 51°18.095 2°52.357 10.7 336 17.3 102280 82
2009-07-01 09:02:46 51°18.111 2°52.361 11.9 335 17.4 102280 81
2009-07-01 09:02:51 51°18.128 2°52.365 11.9 336 17.4 102280 81
2009-07-01 09:02:56 51°18.144 2°52.37 10.4 336 17.4 102280 80
2009-07-01 09:03:01 51°18.16 2°52.374 12.2 337 17.4 102280 80
2009-07-01 09:03:06 51°18.177 2°52.378 10.2 336 17.4 102280 81
2009-07-01 09:03:12 51°18.196 2°52.383 11.5 337 17.4 102280 81
2009-07-01 09:03:16 51°18.209 2°52.385 10.5 336 17.4 102280 80
2009-07-01 09:03:21 51°18.225 2°52.389 10.4 338 17.4 102280 80
2009-07-01 09:03:26 51°18.242 2°52.393 10.1 336 17.4 102280 80
2009-07-01 09:03:31 51°18.258 2°52.397 11.1 280 17.4 102280 80
2009-07-01 09:03:36 51°18.274 2°52.402 10.3 337 17.3 102280 80
2009-07-01 09:03:42 51°18.293 2°52.407 10.3 339 17.3 102280 80
2009-07-01 09:03:46 51°18.306 2°52.41 11.4 337 17.3 102280 80
2009-07-01 09:03:50 51°18.319 2°52.414 10.3 338 17.3 102280 80
2009-07-01 09:03:56 51°18.339 2°52.418 10.4 339 17.4 102280 81
2009-07-01 09:04:02 51°18.357 2°52.423 12.1 336 17.4 102280 81
2009-07-01 09:04:06 51°18.37 2°52.426 11.9 338 17.4 102290 81
2009-07-01 09:04:11 51°18.386 2°52.43 10.1 338 17.4 102290 81
2009-07-01 09:04:16 51°18.402 2°52.434 9.7 338 17.4 102280 79
2009-07-01 09:04:22 51°18.422 2°52.439 10.5 339 17.4 102280 79
2009-07-01 09:04:26 51°18.434 2°52.443 11.9 339 17.4 102280 79
2009-07-01 09:04:31 51°18.45 2°52.447 11.2 339 17.4 102280 79
2009-07-01 09:04:36 51°18.466 2°52.451 10.9 341 17.4 102280 81
2009-07-01 09:04:42 51°18.485 2°52.457 9.3 341 17.4 102280 81
2009-07-01 09:04:46 51°18.498 2°52.46 10.5 339 17.4 102280 79
2009-07-01 09:04:50 51°18.511 2°52.464 9 340 17.4 102280 79
2009-07-01 09:04:56 51°18.53 2°52.469 10.4 339 17.3 102280 81
2009-07-01 09:05:01 51°18.546 2°52.473 10 339 17.3 102280 81
2009-07-01 09:05:06 51°18.562 2°52.476 10.5 340 17.4 102280 80
2009-07-01 09:05:10 51°18.575 2°52.479 10.6 336 17.4 102280 80
2009-07-01 09:05:16 51°18.594 2°52.484 10.6 337 17.3 102280 80
2009-07-01 09:05:21 51°18.61 2°52.488 10.2 338 17.3 102280 80
2009-07-01 09:05:26 51°18.626 2°52.492 11.2 336 17.4 102280 80
2009-07-01 09:05:31 51°18.642 2°52.496 10.6 280 17.4 102280 80
2009-07-01 09:05:37 51°18.661 2°52.501 10.3 338 17.4 102280 80
2009-07-01 09:05:42 51°18.677 2°52.505 10.8 338 17.4 102280 80
2009-07-01 09:05:46 51°18.69 2°52.508 10.6 338 17.4 102280 79
2009-07-01 09:05:51 51°18.706 2°52.513 9.8 338 17.4 102280 79
2009-07-01 09:05:56 51°18.722 2°52.518 10.4 339 17.4 102280 79
2009-07-01 09:06:02 51°18.742 2°52.522 11.1 339 17.4 102280 79
2009-07-01 09:06:06 51°18.755 2°52.526 11.8 339 17.4 102280 79
2009-07-01 09:06:10 51°18.768 2°52.529 10.2 339 17.4 102280 79
2009-07-01 09:06:16 51°18.787 2°52.534 11.5 337 17.4 102290 79
2009-07-01 09:06:22 51°18.806 2°52.539 9.8 339 17.4 102290 79
2009-07-01 09:06:26 51°18.819 2°52.542 10.2 338 17.4 102280 80
2009-07-01 09:06:30 51°18.832 2°52.545 10 339 17.4 102280 80
2009-07-01 09:06:36 51°18.852 2°52.55 10.2 340 17.4 102280 81
2009-07-01 09:06:42 51°18.872 2°52.555 10.6 338 17.4 102280 81
2009-07-01 09:06:46 51°18.886 2°52.559 10.7 339 17.4 102280 79
2009-07-01 09:06:50 51°18.899 2°52.562 10.7 338 17.4 102280 79
2009-07-01 09:06:56 51°18.919 2°52.566 11.1 340 17.4 102280 79
2009-07-01 09:07:02 51°18.939 2°52.571 10.3 340 17.4 102280 79
2009-07-01 09:07:06 51°18.952 2°52.574 10.5 339 17.4 102280 81
2009-07-01 09:07:11 51°18.969 2°52.578 10.2 340 17.4 102280 81
2009-07-01 09:07:16 51°18.986 2°52.581 11.2 340 17.4 102280 81
2009-07-01 09:07:22 51°19.006 2°52.586 12.1 340 17.4 102280 81
2009-07-01 09:07:26 51°19.019 2°52.59 11 339 17.4 102280 81
2009-07-01 09:07:31 51°19.036 2°52.594 10.4 276 17.4 102280 81
2009-07-01 09:07:36 51°19.053 2°52.598 10.6 337 17.5 102280 81
2009-07-01 09:07:42 51°19.073 2°52.603 10.8 336 17.5 102280 81
2009-07-01 09:07:46 51°19.086 2°52.607 10.8 335 17.5 102290 81
2009-07-01 09:07:51 51°19.103 2°52.611 10.2 334 17.5 102290 81
2009-07-01 09:07:56 51°19.12 2°52.615 10.4 335 17.5 102280 81
2009-07-01 09:08:01 51°19.137 2°52.619 11.1 335 17.5 102280 81
2009-07-01 09:08:06 51°19.154 2°52.623 10.1 335 17.5 102280 81
2009-07-01 09:08:11 51°19.171 2°52.628 10.9 335 17.5 102280 81
2009-07-01 09:08:17 51°19.191 2°52.633 10.3 335 17.5 102290 80
2009-07-01 09:08:22 51°19.208 2°52.637 10.2 332 17.5 102290 80
2009-07-01 09:08:26 51°19.221 2°52.641 11.3 334 17.5 102280 80
2009-07-01 09:08:31 51°19.238 2°52.647 11.9 277 17.5 102280 80
2009-07-01 09:08:36 51°19.255 2°52.652 11.7 336 17.5 102280 80
2009-07-01 09:08:42 51°19.275 2°52.657 10.7 336 17.5 102280 80
2009-07-01 09:08:46 51°19.289 2°52.661 11.9 334 17.5 102290 81
2009-07-01 09:08:50 51°19.302 2°52.665 11.7 335 17.5 102290 81
2009-07-01 09:08:56 51°19.322 2°52.671 10.7 335 17.5 102280 80
2009-07-01 09:09:02 51°19.343 2°52.677 10.5 334 17.5 102280 80
2009-07-01 09:09:06 51°19.356 2°52.68 10.5 334 17.5 102280 81
2009-07-01 09:09:10 51°19.37 2°52.683 11 335 17.5 102280 81
2009-07-01 09:09:16 51°19.39 2°52.688 11.7 334 17.5 102280 81
2009-07-01 09:09:21 51°19.407 2°52.692 12.1 332 17.5 102280 81
2009-07-01 09:09:26 51°19.424 2°52.697 12.7 331 17.5 102290 81
2009-07-01 09:09:31 51°19.44 2°52.702 10.7 276 17.5 102290 81
2009-07-01 09:09:36 51°19.457 2°52.707 12.2 336 17.5 102280 80
2009-07-01 09:09:41 51°19.474 2°52.711 12.7 337 17.5 102280 80
2009-07-01 09:09:46 51°19.491 2°52.716 11.5 338 17.5 102280 81
2009-07-01 09:09:51 51°19.508 2°52.72 10.7 339 17.5 102280 81
2009-07-01 09:09:56 51°19.525 2°52.724 13 340 17.5 102280 80
2009-07-01 09:10:01 51°19.542 2°52.728 10.8 341 17.5 102280 80
2009-07-01 09:10:06 51°19.559 2°52.731 10.3 341 17.5 102280 81
2009-07-01 09:10:11 51°19.576 2°52.736 11.6 342 17.5 102280 81
2009-07-01 09:10:16 51°19.593 2°52.74 11.7 342 17.5 102280 81
2009-07-01 09:10:21 51°19.61 2°52.745 10.4 339 17.5 102280 81
2009-07-01 09:10:26 51°19.627 2°52.749 11.2 342 17.5 102280 80
2009-07-01 09:10:31 51°19.644 2°52.753 11 342 17.5 102280 80
2009-07-01 09:10:35 51°19.658 2°52.757 10.9 344 17.5 102280 81
2009-07-01 09:10:41 51°19.678 2°52.762 9.8 342 17.5 102280 81
2009-07-01 09:10:46 51°19.695 2°52.766 10.1 342 17.5 102290 80
2009-07-01 09:10:51 51°19.712 2°52.771 12 336 17.5 102290 80
2009-07-01 09:10:56 51°19.729 2°52.776 12.2 337 17.5 102280 80
2009-07-01 09:11:01 51°19.746 2°52.781 12 338 17.5 102280 80
2009-07-01 09:11:06 51°19.763 2°52.785 11.9 337 17.5 102280 81
2009-07-01 09:11:11 51°19.78 2°52.791 10.5 336 17.5 102280 81
2009-07-01 09:11:16 51°19.797 2°52.795 11 336 17.5 102280 81
2009-07-01 09:11:22 51°19.817 2°52.801 10.6 336 17.5 102280 81
2009-07-01 09:11:26 51°19.831 2°52.805 13.1 337 17.4 102280 80
2009-07-01 09:11:31 51°19.848 2°52.81 11.4 283 17.4 102280 80
2009-07-01 09:11:36 51°19.865 2°52.814 12.4 338 17.4 102280 79
2009-07-01 09:11:41 51°19.882 2°52.819 11.2 336 17.4 102280 79
2009-07-01 09:11:46 51°19.899 2°52.824 12.8 337 17.4 102280 80
2009-07-01 09:11:50 51°19.913 2°52.828 11 338 17.4 102280 80
2009-07-01 09:11:56 51°19.933 2°52.833 10.5 338 17.4 102270 81
2009-07-01 09:12:01 51°19.95 2°52.838 11.9 337 17.4 102270 81
2009-07-01 09:12:06 51°19.968 2°52.843 10.3 338 17.5 102270 80
2009-07-01 09:12:10 51°19.981 2°52.847 12.7 335 17.5 102270 80
2009-07-01 09:12:16 51°20.002 2°52.853 11.1 335 17.4 102280 79
2009-07-01 09:12:21 51°20.019 2°52.858 10.1 335 17.4 102280 79
2009-07-01 09:12:26 51°20.036 2°52.862 9.8 336 17.4 102280 80
2009-07-01 09:12:30 51°20.049 2°52.866 10.7 338 17.4 102280 80
2009-07-01 09:12:36 51°20.07 2°52.872 9.9 337 17.4 102280 79
2009-07-01 09:12:41 51°20.087 2°52.877 10.5 337 17.4 102280 79
2009-07-01 09:12:46 51°20.104 2°52.882 10.1 337 17.4 102280 79
2009-07-01 09:12:51 51°20.121 2°52.886 11.3 337 17.4 102280 79
2009-07-01 09:12:56 51°20.138 2°52.891 11.6 337 17.4 102280 79
2009-07-01 09:13:01 51°20.155 2°52.895 10.1 337 17.4 102280 79
2009-07-01 09:13:06 51°20.172 2°52.9 12.3 336 17.4 102280 79
2009-07-01 09:13:11 51°20.188 2°52.904 10.7 337 17.4 102280 79
2009-07-01 09:13:15 51°20.202 2°52.908 11.3 336 17.4 102290 80
2009-07-01 09:13:21 51°20.222 2°52.915 13.1 337 17.4 102290 80
2009-07-01 09:13:26 51°20.239 2°52.919 12.5 337 17.4 102280 80
2009-07-01 09:13:31 51°20.256 2°52.924 12.3 280 17.4 102280 80
2009-07-01 09:13:36 51°20.272 2°52.929 12.3 337 17.4 102280 80
2009-07-01 09:13:42 51°20.292 2°52.935 11.8 338 17.4 102280 80
2009-07-01 09:13:46 51°20.306 2°52.938 11.5 337 17.5 102280 80
2009-07-01 09:13:51 51°20.323 2°52.944 12.6 336 17.5 102280 80
2009-07-01 09:13:56 51°20.339 2°52.948 11.6 338 17.4 102280 79
2009-07-01 09:14:01 51°20.356 2°52.953 12.9 338 17.4 102280 79
2009-07-01 09:14:06 51°20.373 2°52.959 11 337 17.4 102280 80
2009-07-01 09:14:11 51°20.389 2°52.964 11.5 338 17.4 102280 80
2009-07-01 09:14:16 51°20.406 2°52.969 11.4 338 17.4 102280 79
2009-07-01 09:14:21 51°20.423 2°52.975 10.9 337 17.4 102280 79
2009-07-01 09:14:26 51°20.439 2°52.98 12.2 338 17.4 102280 79
2009-07-01 09:14:30 51°20.453 2°52.985 12.7 338 17.4 102280 79
2009-07-01 09:14:36 51°20.473 2°52.992 11.7 337 17.4 102280 78
2009-07-01 09:14:41 51°20.489 2°52.997 11.6 338 17.4 102280 78
2009-07-01 09:14:46 51°20.506 2°53.003 11.3 338 17.4 102280 79
2009-07-01 09:14:50 51°20.519 2°53.007 11.6 339 17.4 102280 79
2009-07-01 09:14:56 51°20.539 2°53.014 10 339 17.4 102280 78
2009-07-01 09:15:02 51°20.559 2°53.021 12 340 17.4 102280 78
2009-07-01 09:15:06 51°20.573 2°53.025 11.7 341 17.4 102280 79
2009-07-01 09:15:10 51°20.586 2°53.029 12.8 339 17.4 102280 79
2009-07-01 09:15:16 51°20.606 2°53.037 10.7 340 17.4 102280 78
2009-07-01 09:15:21 51°20.622 2°53.043 12.5 340 17.4 102280 78
2009-07-01 09:15:26 51°20.639 2°53.049 13.2 341 17.4 102280 79
2009-07-01 09:15:31 51°20.655 2°53.055 12.8 280 17.4 102280 79
2009-07-01 09:15:36 51°20.672 2°53.06 10.9 340 17.4 102280 79
2009-07-01 09:15:42 51°20.692 2°53.067 10.6 341 17.4 102280 79
2009-07-01 09:15:46 51°20.705 2°53.072 10.7 342 17.4 102280 79
2009-07-01 09:15:51 51°20.721 2°53.078 10 340 17.4 102280 79
2009-07-01 09:15:56 51°20.738 2°53.083 9.8 341 17.4 102270 78
2009-07-01 09:16:02 51°20.758 2°53.089 9.8 340 17.4 102270 78
2009-07-01 09:16:06 51°20.771 2°53.093 10.5 342 17.4 102280 79
2009-07-01 09:16:10 51°20.784 2°53.097 9.7 342 17.4 102280 79
2009-07-01 09:16:16 51°20.804 2°53.103 11.2 342 17.4 102280 79
2009-07-01 09:16:21 51°20.821 2°53.108 9.7 341 17.4 102280 79
2009-07-01 09:16:26 51°20.837 2°53.114 9.9 341 17.4 102280 79
2009-07-01 09:16:30 51°20.85 2°53.118 11.8 339 17.4 102280 79
2009-07-01 09:16:36 51°20.87 2°53.125 9.6 339 17.4 102280 79
2009-07-01 09:16:41 51°20.887 2°53.131 11.3 338 17.4 102280 79
2009-07-01 09:16:46 51°20.903 2°53.136 11.8 339 17.4 102280 79
2009-07-01 09:16:51 51°20.92 2°53.142 11.6 338 17.4 102280 79
2009-07-01 09:16:56 51°20.936 2°53.148 11.7 340 17.4 102280 78
2009-07-01 09:17:01 51°20.953 2°53.154 9.6 339 17.4 102280 78
2009-07-01 09:17:06 51°20.969 2°53.16 9.7 339 17.4 102280 78
2009-07-01 09:17:11 51°20.986 2°53.166 11.5 339 17.4 102280 78
2009-07-01 09:17:16 51°21.002 2°53.171 11.3 339 17.4 102280 78
2009-07-01 09:17:21 51°21.019 2°53.176 11.3 339 17.4 102280 78
2009-07-01 09:17:26 51°21.035 2°53.182 9.8 339 17.5 102280 79
2009-07-01 09:17:30 51°21.049 2°53.186 11.4 341 17.5 102280 79
2009-07-01 09:17:36 51°21.069 2°53.193 10.9 342 17.5 102280 79
2009-07-01 09:17:42 51°21.089 2°53.199 11.4 339 17.5 102280 79
2009-07-01 09:17:46 51°21.102 2°53.204 11 340 17.5 102280 79
2009-07-01 09:17:50 51°21.115 2°53.208 12.8 338 17.5 102280 79
2009-07-01 09:17:56 51°21.135 2°53.215 10.6 337 17.5 102280 78
2009-07-01 09:18:02 51°21.155 2°53.222 10.3 338 17.5 102280 78
2009-07-01 09:18:06 51°21.168 2°53.226 10.1 337 17.5 102280 78
2009-07-01 09:18:11 51°21.185 2°53.232 9.9 338 17.5 102280 78
2009-07-01 09:18:16 51°21.201 2°53.237 11.5 338 17.5 102270 79
2009-07-01 09:18:21 51°21.218 2°53.243 12.2 337 17.5 102270 79
2009-07-01 09:18:26 51°21.235 2°53.248 12.7 336 17.5 102280 79
2009-07-01 09:18:31 51°21.251 2°53.254 13.2 336 17.5 102280 79
2009-07-01 09:18:36 51°21.268 2°53.259 11.2 337 17.5 102280 78
2009-07-01 09:18:41 51°21.284 2°53.264 11.9 337 17.5 102280 78
2009-07-01 09:18:46 51°21.301 2°53.269 9.8 336 17.5 102280 79
2009-07-01 09:18:51 51°21.318 2°53.273 10 336 17.5 102280 79
2009-07-01 09:18:55 51°21.331 2°53.277 12.1 337 17.5 102280 79
2009-07-01 09:19:01 51°21.351 2°53.283 10.5 335 17.5 102280 79
2009-07-01 09:19:06 51°21.368 2°53.288 12.5 337 17.5 102280 80
2009-07-01 09:19:11 51°21.384 2°53.294 12.4 337 17.5 102280 80
2009-07-01 09:19:16 51°21.401 2°53.299 12.4 336 17.5 102280 78
2009-07-01 09:19:21 51°21.417 2°53.304 9.7 334 17.5 102280 78
2009-07-01 09:19:26 51°21.434 2°53.309 12.6 337 17.5 102280 78
2009-07-01 09:19:31 51°21.451 2°53.313 12.6 336 17.5 102280 78
2009-07-01 09:19:36 51°21.468 2°53.318 10 336 17.5 102280 78
2009-07-01 09:19:41 51°21.484 2°53.323 10.5 336 17.5 102280 78
2009-07-01 09:19:46 51°21.501 2°53.327 11.8 336 17.5 102280 80
2009-07-01 09:19:50 51°21.514 2°53.331 11.7 333 17.5 102280 80
2009-07-01 09:19:56 51°21.534 2°53.337 10.9 333 17.5 102280 79
2009-07-01 09:20:02 51°21.554 2°53.344 12.5 334 17.5 102280 79
2009-07-01 09:20:06 51°21.568 2°53.349 10.4 334 17.5 102280 78
2009-07-01 09:20:10 51°21.581 2°53.353 10.1 334 17.5 102280 78
2009-07-01 09:20:16 51°21.601 2°53.358 11.7 335 17.5 102290 78
2009-07-01 09:20:22 51°21.621 2°53.365 11.7 335 17.5 102290 78
2009-07-01 09:20:26 51°21.634 2°53.368 10 336 17.5 102280 78
2009-07-01 09:20:30 51°21.648 2°53.372 11.4 335 17.5 102280 78
2009-07-01 09:20:36 51°21.668 2°53.378 10.1 335 17.5 102280 78
2009-07-01 09:20:41 51°21.685 2°53.382 12.1 335 17.5 102280 78
2009-07-01 09:20:46 51°21.702 2°53.387 12.2 338 17.5 102280 79
2009-07-01 09:20:50 51°21.715 2°53.391 11.9 338 17.5 102280 79
2009-07-01 09:20:56 51°21.735 2°53.396 11.7 338 17.5 102290 78
2009-07-01 09:21:01 51°21.752 2°53.402 11.9 337 17.5 102290 78
2009-07-01 09:21:06 51°21.768 2°53.407 11.7 338 17.5 102280 79
2009-07-01 09:21:11 51°21.785 2°53.412 11.8 338 17.5 102280 79
2009-07-01 09:21:16 51°21.802 2°53.417 13.2 338 17.5 102290 78
2009-07-01 09:21:21 51°21.819 2°53.422 10.6 338 17.5 102290 78
2009-07-01 09:21:26 51°21.835 2°53.427 10.9 338 17.5 102280 79
2009-07-01 09:21:31 51°21.852 2°53.432 10.9 338 17.5 102280 79
2009-07-01 09:21:35 51°21.865 2°53.436 11.5 336 17.4 102270 78
2009-07-01 09:21:41 51°21.885 2°53.442 13 336 17.4 102270 78
2009-07-01 09:21:46 51°21.902 2°53.448 13.6 338 17.4 102280 78
2009-07-01 09:21:51 51°21.919 2°53.453 12.3 337 17.4 102280 78
2009-07-01 09:21:56 51°21.935 2°53.459 12.5 337 17.4 102280 78
2009-07-01 09:22:01 51°21.952 2°53.464 10.6 334 17.4 102280 78
2009-07-01 09:22:06 51°21.969 2°53.47 12.1 337 17.4 102280 79
2009-07-01 09:22:11 51°21.985 2°53.475 10.7 337 17.4 102280 79
2009-07-01 09:22:16 51°22.002 2°53.481 11.9 337 17.4 102280 79
2009-07-01 09:22:22 51°22.022 2°53.487 12.1 337 17.4 102280 79
2009-07-01 09:22:26 51°22.035 2°53.492 12 337 17.5 102280 79
2009-07-01 09:22:30 51°22.049 2°53.496 12.4 336 17.5 102280 79
2009-07-01 09:22:36 51°22.069 2°53.503 11.1 337 17.4 102280 78
2009-07-01 09:22:42 51°22.089 2°53.509 10.9 337 17.4 102280 78
2009-07-01 09:22:46 51°22.102 2°53.514 11.2 338 17.5 102280 78
2009-07-01 09:22:50 51°22.115 2°53.518 13.3 337 17.5 102280 78
2009-07-01 09:22:56 51°22.135 2°53.525 11.5 337 17.5 102280 78
2009-07-01 09:23:01 51°22.152 2°53.53 11.3 336 17.5 102280 78
2009-07-01 09:23:06 51°22.169 2°53.536 12.6 336 17.5 102280 79
2009-07-01 09:23:10 51°22.182 2°53.541 13.4 336 17.5 102280 79
2009-07-01 09:23:16 51°22.202 2°53.547 11.5 337 17.5 102280 79
2009-07-01 09:23:21 51°22.219 2°53.553 13 337 17.5 102280 79
2009-07-01 09:23:26 51°22.236 2°53.558 13 336 17.5 102280 78
2009-07-01 09:23:31 51°22.252 2°53.564 12.7 337 17.5 102280 78
2009-07-01 09:23:36 51°22.269 2°53.57 12.9 339 17.5 102280 78
2009-07-01 09:23:41 51°22.286 2°53.576 11.5 338 17.5 102280 78
2009-07-01 09:23:46 51°22.303 2°53.581 11.1 339 17.5 102280 80
2009-07-01 09:23:51 51°22.32 2°53.587 13.7 338 17.5 102280 80
2009-07-01 09:23:56 51°22.337 2°53.592 13.3 338 17.5 102280 79
2009-07-01 09:24:01 51°22.353 2°53.597 11.5 339 17.5 102280 79
2009-07-01 09:24:06 51°22.37 2°53.601 12.4 337 17.5 102280 79
2009-07-01 09:24:11 51°22.387 2°53.606 11.2 338 17.5 102280 79
2009-07-01 09:24:16 51°22.403 2°53.611 13.3 339 17.5 102280 78
2009-07-01 09:24:22 51°22.423 2°53.616 12.3 341 17.5 102280 78
2009-07-01 09:24:26 51°22.437 2°53.62 9.8 340 17.5 102280 79
2009-07-01 09:24:31 51°22.454 2°53.625 9.8 337 17.5 102280 79
2009-07-01 09:24:35 51°22.467 2°53.629 10 338 17.5 102280 78
2009-07-01 09:24:41 51°22.487 2°53.634 11.4 335 17.5 102280 78
2009-07-01 09:24:46 51°22.504 2°53.639 10.4 336 17.5 102280 77
2009-07-01 09:24:51 51°22.521 2°53.644 11.7 336 17.5 102280 77
2009-07-01 09:24:56 51°22.538 2°53.649 11.9 337 17.4 102290 77
2009-07-01 09:25:02 51°22.558 2°53.654 10.8 335 17.4 102290 77
2009-07-01 09:25:06 51°22.572 2°53.658 10.5 339 17.5 102290 78
2009-07-01 09:25:11 51°22.589 2°53.663 11.3 337 17.5 102290 78
2009-07-01 09:25:16 51°22.605 2°53.668 11.8 340 17.4 102290 77
2009-07-01 09:25:22 51°22.626 2°53.674 12.2 339 17.4 102290 77
2009-07-01 09:25:26 51°22.639 2°53.678 11.7 339 17.5 102290 79
2009-07-01 09:25:30 51°22.653 2°53.682 12.2 341 17.5 102290 79
2009-07-01 09:25:36 51°22.674 2°53.687 13 340 17.5 102280 78
2009-07-01 09:25:41 51°22.691 2°53.691 10.6 340 17.5 102280 78
2009-07-01 09:25:46 51°22.707 2°53.696 10.4 339 17.5 102290 78
2009-07-01 09:25:50 51°22.721 2°53.7 11.7 341 17.5 102290 78
2009-07-01 09:25:56 51°22.741 2°53.706 12.7 342 17.4 102280 77
2009-07-01 09:26:01 51°22.758 2°53.71 12.2 339 17.4 102280 77
2009-07-01 09:26:06 51°22.775 2°53.715 12.6 338 17.4 102280 78
2009-07-01 09:26:10 51°22.788 2°53.719 10.9 338 17.4 102280 78
2009-07-01 09:26:16 51°22.809 2°53.725 11.9 338 17.4 102290 78
2009-07-01 09:26:21 51°22.826 2°53.73 10.4 339 17.4 102290 78
2009-07-01 09:26:26 51°22.842 2°53.735 11.8 339 17.5 102290 78
2009-07-01 09:26:31 51°22.859 2°53.74 10.8 338 17.5 102290 78
2009-07-01 09:26:36 51°22.876 2°53.745 10.5 338 17.5 102290 77
2009-07-01 09:26:42 51°22.896 2°53.752 11.3 336 17.5 102290 77
2009-07-01 09:26:46 51°22.91 2°53.757 10.5 337 17.4 102290 78
2009-07-01 09:26:51 51°22.927 2°53.762 11.8 337 17.4 102290 78
2009-07-01 09:26:56 51°22.944 2°53.767 12.3 336 17.4 102290 77
2009-07-01 09:27:02 51°22.965 2°53.773 11.7 335 17.4 102290 77
2009-07-01 09:27:06 51°22.978 2°53.778 10.8 335 17.4 102290 78
2009-07-01 09:27:11 51°22.995 2°53.784 10.5 335 17.4 102290 78
2009-07-01 09:27:15 51°23.008 2°53.788 12.5 336 17.4 102290 77
2009-07-01 09:27:22 51°23.033 2°53.796 10.6 336 17.4 102290 77
2009-07-01 09:27:26 51°23.046 2°53.8 12 337 17.5 102290 79
2009-07-01 09:27:31 51°23.064 2°53.805 10.3 338 17.5 102290 79
2009-07-01 09:27:36 51°23.081 2°53.81 10.3 336 17.5 102300 78
2009-07-01 09:27:42 51°23.101 2°53.817 11.8 336 17.5 102300 78
2009-07-01 09:27:46 51°23.115 2°53.821 10.4 337 17.4 102290 77
2009-07-01 09:27:51 51°23.132 2°53.826 11.4 336 17.4 102290 77
2009-07-01 09:27:56 51°23.149 2°53.831 10.8 337 17.5 102300 77
2009-07-01 09:28:01 51°23.166 2°53.836 11.5 339 17.5 102300 77
2009-07-01 09:28:06 51°23.183 2°53.84 10.7 337 17.5 102290 79
2009-07-01 09:28:11 51°23.2 2°53.845 11.8 334 17.5 102290 79
2009-07-01 09:28:16 51°23.217 2°53.85 12.3 337 17.5 102300 79
2009-07-01 09:28:21 51°23.235 2°53.855 10.8 336 17.5 102300 79
2009-07-01 09:28:26 51°23.252 2°53.86 11.8 335 17.5 102290 77
2009-07-01 09:28:31 51°23.269 2°53.865 10.9 277 17.5 102290 77
2009-07-01 09:28:36 51°23.286 2°53.869 12.9 337 17.5 102300 79
2009-07-01 09:28:42 51°23.306 2°53.876 12.2 335 17.5 102300 79
2009-07-01 09:28:46 51°23.32 2°53.88 10.8 334 17.5 102300 78
2009-07-01 09:28:50 51°23.334 2°53.885 11.8 336 17.5 102300 78
2009-07-01 09:28:56 51°23.354 2°53.891 12.7 334 17.5 102290 79
2009-07-01 09:29:02 51°23.374 2°53.897 12 336 17.5 102290 79
2009-07-01 09:29:06 51°23.388 2°53.901 12.2 338 17.5 102290 79
2009-07-01 09:29:10 51°23.401 2°53.905 11.9 339 17.5 102290 79
2009-07-01 09:29:16 51°23.422 2°53.911 11.2 338 17.5 102300 78
2009-07-01 09:29:22 51°23.442 2°53.917 12.6 340 17.5 102300 78
2009-07-01 09:29:26 51°23.456 2°53.921 13.2 337 17.5 102290 78
2009-07-01 09:29:31 51°23.473 2°53.927 11.4 340 17.5 102290 78
2009-07-01 09:29:36 51°23.489 2°53.931 12.6 340 17.6 102290 78
2009-07-01 09:29:42 51°23.51 2°53.937 13.1 341 17.6 102290 78
2009-07-01 09:29:46 51°23.523 2°53.942 11.5 339 17.5 102290 79
2009-07-01 09:29:51 51°23.54 2°53.947 12.1 339 17.5 102290 79
2009-07-01 09:29:56 51°23.557 2°53.953 11.3 335 17.5 102280 78
2009-07-01 09:30:01 51°23.574 2°53.958 11.3 336 17.5 102280 78
2009-07-01 09:30:06 51°23.591 2°53.965 13.4 336 17.5 102290 77
2009-07-01 09:30:11 51°23.608 2°53.97 12.6 338 17.5 102290 77
2009-07-01 09:30:15 51°23.621 2°53.975 10.6 337 17.5 102290 78
2009-07-01 09:30:21 51°23.642 2°53.982 12.5 335 17.5 102290 78
2009-07-01 09:30:26 51°23.659 2°53.988 12.4 335 17.5 102290 77
2009-07-01 09:30:31 51°23.676 2°53.994 12.5 283 17.5 102290 77
2009-07-01 09:30:36 51°23.692 2°54 11.4 336 17.5 102300 78
2009-07-01 09:30:41 51°23.709 2°54.005 11.6 336 17.5 102300 78
2009-07-01 09:30:46 51°23.727 2°54.011 10.4 335 17.5 102290 78
2009-07-01 09:30:51 51°23.744 2°54.017 10.2 337 17.5 102290 78
2009-07-01 09:30:56 51°23.76 2°54.023 10.5 335 17.5 102290 77
2009-07-01 09:31:01 51°23.778 2°54.029 10.7 337 17.5 102290 77
2009-07-01 09:31:06 51°23.794 2°54.035 10.5 337 17.5 102290 78
2009-07-01 09:31:10 51°23.808 2°54.039 12.1 337 17.5 102290 78
2009-07-01 09:31:16 51°23.829 2°54.046 11.9 335 17.5 102300 79
2009-07-01 09:31:22 51°23.849 2°54.051 10.9 337 17.5 102300 79
2009-07-01 09:31:26 51°23.863 2°54.056 12.2 333 17.5 102290 79
2009-07-01 09:31:30 51°23.876 2°54.061 10 337 17.5 102290 79
2009-07-01 09:31:36 51°23.897 2°54.067 11.6 338 17.5 102300 78
2009-07-01 09:31:42 51°23.918 2°54.073 11.2 338 17.5 102300 78
2009-07-01 09:31:46 51°23.931 2°54.077 10 338 17.5 102290 79
2009-07-01 09:31:50 51°23.945 2°54.081 12.4 338 17.5 102290 79
2009-07-01 09:31:56 51°23.965 2°54.087 11.6 340 17.5 102290 78
2009-07-01 09:32:02 51°23.986 2°54.094 11.9 338 17.5 102290 78
2009-07-01 09:32:06 51°24 2°54.098 12.3 339 17.5 102300 78
2009-07-01 09:32:11 51°24.017 2°54.104 11.2 336 17.5 102300 78
2009-07-01 09:32:16 51°24.034 2°54.109 11.7 335 17.5 102300 79
2009-07-01 09:32:21 51°24.051 2°54.116 11.8 337 17.5 102300 79
2009-07-01 09:32:26 51°24.068 2°54.122 13.2 336 17.6 102290 78
2009-07-01 09:32:31 51°24.085 2°54.128 11.8 282 17.6 102290 78
2009-07-01 09:32:36 51°24.102 2°54.134 11 338 17.5 102290 77
2009-07-01 09:32:41 51°24.119 2°54.14 13.1 336 17.5 102290 77
2009-07-01 09:32:46 51°24.136 2°54.146 11.2 336 17.5 102300 78
2009-07-01 09:32:51 51°24.153 2°54.151 11.9 333 17.5 102300 78
2009-07-01 09:32:55 51°24.167 2°54.156 13.2 335 17.5 102300 78
2009-07-01 09:33:01 51°24.188 2°54.164 12.9 337 17.5 102300 78
2009-07-01 09:33:06 51°24.205 2°54.169 13.2 338 17.5 102300 78
2009-07-01 09:33:11 51°24.222 2°54.175 13.1 337 17.5 102300 78
2009-07-01 09:33:16 51°24.239 2°54.179 12.6 336 17.5 102300 78
2009-07-01 09:33:21 51°24.256 2°54.185 11.4 337 17.5 102300 78
2009-07-01 09:33:26 51°24.273 2°54.191 12.8 336 17.5 102300 77
2009-07-01 09:33:31 51°24.291 2°54.196 12.3 338 17.5 102300 77
2009-07-01 09:33:36 51°24.308 2°54.201 11 338 17.5 102290 77
2009-07-01 09:33:42 51°24.329 2°54.207 11.3 338 17.5 102290 77
2009-07-01 09:33:46 51°24.342 2°54.211 12.3 338 17.5 102300 78
2009-07-01 09:33:50 51°24.356 2°54.215 11.5 340 17.5 102300 78
2009-07-01 09:33:56 51°24.377 2°54.221 11.8 339 17.5 102300 77
2009-07-01 09:34:02 51°24.398 2°54.227 11.8 341 17.5 102300 77
2009-07-01 09:34:06 51°24.412 2°54.231 11.8 340 17.5 102300 78
2009-07-01 09:34:10 51°24.425 2°54.235 10.5 338 17.5 102300 78
2009-07-01 09:34:16 51°24.446 2°54.24 11.4 341 17.5 102300 77
2009-07-01 09:34:21 51°24.463 2°54.245 11.1 339 17.5 102300 77
2009-07-01 09:34:26 51°24.481 2°54.249 12.4 341 17.5 102300 78
2009-07-01 09:34:30 51°24.495 2°54.253 10.6 278 17.5 102300 78
2009-07-01 09:34:36 51°24.515 2°54.258 12.2 340 17.5 102300 77
2009-07-01 09:34:41 51°24.533 2°54.262 12 337 17.5 102300 77
2009-07-01 09:34:46 51°24.55 2°54.266 12.3 337 17.5 102300 77
2009-07-01 09:34:51 51°24.567 2°54.27 11.6 335 17.5 102300 77
2009-07-01 09:34:56 51°24.585 2°54.275 12.7 336 17.5 102300 77
2009-07-01 09:35:01 51°24.602 2°54.279 12.4 337 17.5 102300 77
2009-07-01 09:35:06 51°24.62 2°54.284 10.4 336 17.5 102300 78
2009-07-01 09:35:11 51°24.637 2°54.288 12.9 336 17.5 102300 78
2009-07-01 09:35:16 51°24.654 2°54.293 12.4 336 17.5 102310 78
2009-07-01 09:35:21 51°24.672 2°54.297 10.1 337 17.5 102310 78
2009-07-01 09:35:26 51°24.689 2°54.301 12 339 17.5 102300 78
2009-07-01 09:35:31 51°24.706 2°54.305 12.7 337 17.5 102300 78
2009-07-01 09:35:35 51°24.72 2°54.308 11 338 17.5 102300 76
2009-07-01 09:35:41 51°24.741 2°54.314 12 338 17.5 102300 76
2009-07-01 09:35:46 51°24.758 2°54.317 10.7 340 17.5 102300 76
2009-07-01 09:35:51 51°24.776 2°54.322 10.4 338 17.5 102300 76
2009-07-01 09:35:56 51°24.793 2°54.325 10.1 337 17.5 102300 77
2009-07-01 09:36:02 51°24.814 2°54.33 12.5 335 17.5 102300 77
2009-07-01 09:36:06 51°24.828 2°54.332 10.8 338 17.5 102300 76
2009-07-01 09:36:11 51°24.845 2°54.337 12.5 337 17.5 102300 76
2009-07-01 09:36:16 51°24.862 2°54.34 11.9 337 17.5 102300 77
2009-07-01 09:36:21 51°24.88 2°54.344 12.4 336 17.5 102300 77
2009-07-01 09:36:26 51°24.897 2°54.348 12.8 335 17.5 102300 78
2009-07-01 09:36:31 51°24.915 2°54.351 13.4 283 17.5 102300 78
2009-07-01 09:36:36 51°24.932 2°54.356 13.4 336 17.5 102300 77
2009-07-01 09:36:42 51°24.953 2°54.36 12.4 335 17.5 102300 77
2009-07-01 09:36:46 51°24.966 2°54.362 12.6 335 17.5 102300 77
2009-07-01 09:36:50 51°24.98 2°54.366 12.5 334 17.5 102300 77
2009-07-01 09:36:56 51°25 2°54.37 12.6 334 17.5 102300 78
2009-07-01 09:37:01 51°25.018 2°54.375 12.5 335 17.5 102300 78
2009-07-01 09:37:06 51°25.035 2°54.379 13.2 335 17.5 102300 78
2009-07-01 09:37:10 51°25.049 2°54.383 10.6 333 17.5 102300 78
2009-07-01 09:37:16 51°25.07 2°54.389 10.9 334 17.5 102300 77
2009-07-01 09:37:22 51°25.09 2°54.394 11.1 335 17.5 102300 77
2009-07-01 09:37:26 51°25.104 2°54.397 12 335 17.4 102300 77
2009-07-01 09:37:30 51°25.118 2°54.4 12.6 336 17.4 102300 77
2009-07-01 09:37:36 51°25.139 2°54.406 12.4 336 17.4 102300 77
2009-07-01 09:37:41 51°25.156 2°54.41 11.6 337 17.4 102300 77
2009-07-01 09:37:46 51°25.173 2°54.415 12.4 334 17.4 102300 77
2009-07-01 09:37:51 51°25.19 2°54.419 11.6 335 17.4 102300 77
2009-07-01 09:37:56 51°25.208 2°54.424 12.5 337 17.4 102310 77
2009-07-01 09:38:02 51°25.229 2°54.429 12.7 337 17.4 102310 77
2009-07-01 09:38:06 51°25.243 2°54.433 11.1 336 17.4 102310 77
2009-07-01 09:38:11 51°25.26 2°54.438 12 338 17.4 102310 77
2009-07-01 09:38:17 51°25.281 2°54.443 10.5 339 17.4 102300 78
2009-07-01 09:38:21 51°25.295 2°54.447 10.6 338 17.4 102300 78
2009-07-01 09:38:26 51°25.312 2°54.45 11.9 338 17.4 102300 77
2009-07-01 09:38:31 51°25.329 2°54.454 11.7 340 17.4 102300 77
2009-07-01 09:38:36 51°25.347 2°54.457 12.6 339 17.4 102310 77
2009-07-01 09:38:42 51°25.368 2°54.461 11.3 340 17.4 102310 77
2009-07-01 09:38:46 51°25.382 2°54.463 12.5 339 17.4 102310 77
2009-07-01 09:38:51 51°25.399 2°54.466 10.5 340 17.4 102310 77
2009-07-01 09:38:56 51°25.417 2°54.468 11.8 341 17.4 102310 76
2009-07-01 09:39:02 51°25.438 2°54.471 11.3 339 17.4 102310 76
2009-07-01 09:39:06 51°25.452 2°54.474 10.7 340 17.4 102300 78
2009-07-01 09:39:10 51°25.466 2°54.475 11.5 340 17.4 102300 78
2009-07-01 09:39:16 51°25.487 2°54.478 12.1 338 17.4 102300 76
2009-07-01 09:39:21 51°25.504 2°54.481 9.6 338 17.4 102300 76
2009-07-01 09:39:26 51°25.522 2°54.484 11.5 340 17.4 102300 77
2009-07-01 09:39:30 51°25.536 2°54.487 10.9 337 17.4 102300 77
2009-07-01 09:39:36 51°25.557 2°54.493 12.3 340 17.4 102300 77
2009-07-01 09:39:41 51°25.574 2°54.499 10.1 340 17.4 102300 77
2009-07-01 09:39:46 51°25.591 2°54.505 10.1 338 17.4 102310 77
2009-07-01 09:39:50 51°25.605 2°54.511 11.4 338 17.4 102310 77
2009-07-01 09:39:56 51°25.625 2°54.523 10.3 336 17.5 102300 76
2009-07-01 09:40:02 51°25.644 2°54.535 11.4 335 17.5 102300 76
2009-07-01 09:40:06 51°25.657 2°54.544 10.1 335 17.4 102300 78
2009-07-01 09:40:10 51°25.671 2°54.553 10.1 336 17.4 102300 78
2009-07-01 09:40:16 51°25.69 2°54.567 11.3 335 17.4 102310 77
2009-07-01 09:40:22 51°25.709 2°54.582 10.7 336 17.4 102310 77
2009-07-01 09:40:26 51°25.722 2°54.591 10.3 335 17.4 102300 76
2009-07-01 09:40:31 51°25.739 2°54.6 10.3 336 17.4 102300 76
2009-07-01 09:40:36 51°25.755 2°54.611 10 335 17.4 102320 75
2009-07-01 09:40:42 51°25.775 2°54.621 11.3 337 17.4 102320 75
2009-07-01 09:40:46 51°25.788 2°54.625 10.8 336 17.4 102310 77
2009-07-01 09:40:51 51°25.805 2°54.63 11.2 337 17.4 102310 77
2009-07-01 09:40:56 51°25.823 2°54.635 10.8 337 17.4 102320 77
2009-07-01 09:41:02 51°25.843 2°54.639 10.6 337 17.4 102320 77
2009-07-01 09:41:06 51°25.857 2°54.641 10.4 339 17.4 102310 77
2009-07-01 09:41:11 51°25.874 2°54.643 10.5 337 17.4 102310 77
2009-07-01 09:41:15 51°25.888 2°54.645 12 338 17.4 102310 76
2009-07-01 09:41:21 51°25.908 2°54.645 11.5 337 17.4 102310 76
2009-07-01 09:41:26 51°25.926 2°54.646 10.7 338 17.4 102310 77
2009-07-01 09:41:31 51°25.943 2°54.646 11.8 339 17.4 102310 77
2009-07-01 09:41:36 51°25.961 2°54.646 10.9 338 17.4 102310 77
2009-07-01 09:41:41 51°25.978 2°54.646 10.5 338 17.4 102310 77
2009-07-01 09:41:46 51°25.995 2°54.645 11.3 338 17.4 102310 78
2009-07-01 09:41:51 51°26.012 2°54.645 11.5 337 17.4 102310 78
2009-07-01 09:41:56 51°26.03 2°54.645 11.8 338 17.4 102310 78
2009-07-01 09:42:01 51°26.047 2°54.645 11.8 337 17.4 102310 78
2009-07-01 09:42:06 51°26.064 2°54.645 11.5 337 17.4 102310 77
2009-07-01 09:42:10 51°26.078 2°54.646 12.9 337 17.4 102310 77
2009-07-01 09:42:16 51°26.099 2°54.646 11.9 337 17.4 102310 78
2009-07-01 09:42:22 51°26.119 2°54.645 12.1 339 17.4 102310 78
2009-07-01 09:42:26 51°26.133 2°54.644 12.1 341 17.4 102310 77
2009-07-01 09:42:30 51°26.146 2°54.644 10.9 278 17.4 102310 77
2009-07-01 09:42:36 51°26.167 2°54.642 11 338 17.4 102310 77
2009-07-01 09:42:42 51°26.187 2°54.641 10.7 339 17.4 102310 77
2009-07-01 09:42:46 51°26.201 2°54.641 11.6 338 17.4 102300 77
2009-07-01 09:42:50 51°26.214 2°54.64 10.5 337 17.4 102300 77
2009-07-01 09:42:56 51°26.235 2°54.64 10.4 336 17.4 102310 77
2009-07-01 09:43:02 51°26.255 2°54.64 10.7 336 17.4 102310 77
2009-07-01 09:43:06 51°26.269 2°54.641 11.5 336 17.4 102310 76
2009-07-01 09:43:11 51°26.286 2°54.642 11.6 337 17.4 102310 76
2009-07-01 09:43:16 51°26.303 2°54.642 11.6 337 17.4 102310 78
2009-07-01 09:43:22 51°26.324 2°54.643 10.3 337 17.4 102310 78
2009-07-01 09:43:26 51°26.337 2°54.643 11.9 338 17.4 102320 78
2009-07-01 09:43:31 51°26.355 2°54.644 10.2 336 17.4 102320 78
2009-07-01 09:43:36 51°26.372 2°54.645 10.8 335 17.3 102310 76
2009-07-01 09:43:41 51°26.389 2°54.645 12.4 341 17.3 102310 76
2009-07-01 09:43:46 51°26.406 2°54.646 10.9 337 17.4 102310 77
2009-07-01 09:43:50 51°26.42 2°54.647 10.8 338 17.4 102310 77
2009-07-01 09:43:56 51°26.441 2°54.648 10.4 339 17.4 102310 77
2009-07-01 09:44:01 51°26.458 2°54.648 10.6 339 17.4 102310 77
2009-07-01 09:44:06 51°26.475 2°54.648 10.9 337 17.4 102310 77
2009-07-01 09:44:10 51°26.489 2°54.649 12.7 339 17.4 102310 77
2009-07-01 09:44:16 51°26.509 2°54.649 12.2 338 17.4 102310 77
2009-07-01 09:44:21 51°26.526 2°54.649 10.6 337 17.4 102310 77
2009-07-01 09:44:26 51°26.543 2°54.65 12.3 337 17.4 102310 78
2009-07-01 09:44:31 51°26.561 2°54.651 12.4 282 17.4 102310 78
2009-07-01 09:44:36 51°26.578 2°54.651 12.4 337 17.4 102310 78
2009-07-01 09:44:41 51°26.595 2°54.652 12.7 337 17.4 102310 78
2009-07-01 09:44:46 51°26.612 2°54.653 12.4 337 17.4 102310 78
2009-07-01 09:44:51 51°26.629 2°54.653 12.2 338 17.4 102310 78
2009-07-01 09:44:56 51°26.646 2°54.654 10.5 337 17.4 102310 77
2009-07-01 09:45:02 51°26.667 2°54.655 12.5 336 17.4 102310 77
2009-07-01 09:45:06 51°26.681 2°54.656 10.7 338 17.4 102310 78
2009-07-01 09:45:11 51°26.698 2°54.656 12.3 338 17.4 102310 78
2009-07-01 09:45:15 51°26.712 2°54.656 12.6 337 17.4 102310 79
2009-07-01 09:45:22 51°26.736 2°54.657 4.4 339 17.4 102310 79
2009-07-01 09:45:26 51°26.75 2°54.657 11 339 17.4 102310 77
2009-07-01 09:45:31 51°26.768 2°54.657 10.6 337 17.4 102310 77
2009-07-01 09:45:36 51°26.785 2°54.657 10.9 339 17.4 102310 78
2009-07-01 09:45:41 51°26.802 2°54.657 11.9 338 17.4 102310 78
2009-07-01 09:45:46 51°26.819 2°54.657 10.6 338 17.3 102310 76
2009-07-01 09:45:50 51°26.833 2°54.658 10.7 334 17.3 102310 76
2009-07-01 09:45:56 51°26.854 2°54.658 11.8 336 17.3 102300 77
2009-07-01 09:46:01 51°26.871 2°54.659 11.6 336 17.3 102300 77
2009-07-01 09:46:06 51°26.889 2°54.659 11.6 336 17.3 102310 77
2009-07-01 09:46:11 51°26.906 2°54.659 12.1 335 17.3 102310 77
2009-07-01 09:46:16 51°26.923 2°54.659 12.5 336 17.3 102310 77
2009-07-01 09:46:21 51°26.94 2°54.659 12.6 338 17.3 102310 77
2009-07-01 09:46:26 51°26.958 2°54.659 11.1 338 17.3 102310 78
2009-07-01 09:46:31 51°26.975 2°54.659 11.1 337 17.3 102310 78
2009-07-01 09:46:35 51°26.989 2°54.66 11.9 339 17.3 102320 76
2009-07-01 09:46:41 51°27.01 2°54.66 10.7 338 17.3 102320 76
2009-07-01 09:46:46 51°27.027 2°54.66 10.1 338 17.3 102310 78
2009-07-01 09:46:51 51°27.045 2°54.66 10.2 338 17.3 102310 78
2009-07-01 09:46:56 51°27.062 2°54.66 11.7 340 17.3 102310 76
2009-07-01 09:47:01 51°27.079 2°54.661 11.1 339 17.3 102310 76
2009-07-01 09:47:06 51°27.096 2°54.661 10.9 337 17.3 102320 76
2009-07-01 09:47:11 51°27.114 2°54.661 11.8 336 17.3 102320 76
2009-07-01 09:47:16 51°27.131 2°54.662 12 340 17.3 102310 77
2009-07-01 09:47:22 51°27.152 2°54.661 11.4 338 17.3 102310 77
2009-07-01 09:47:26 51°27.166 2°54.661 10 339 17.3 102310 77
2009-07-01 09:47:31 51°27.183 2°54.661 10.3 337 17.3 102310 77
2009-07-01 09:47:36 51°27.2 2°54.661 11.3 338 17.3 102310 76
2009-07-01 09:47:42 51°27.221 2°54.66 10.2 337 17.3 102310 76
2009-07-01 09:47:46 51°27.235 2°54.66 10.8 339 17.3 102310 76
2009-07-01 09:47:50 51°27.249 2°54.66 12.5 337 17.3 102310 76
2009-07-01 09:47:56 51°27.27 2°54.66 11.3 338 17.3 102310 78
2009-07-01 09:48:01 51°27.287 2°54.659 11.8 338 17.3 102310 78
2009-07-01 09:48:06 51°27.304 2°54.659 12.4 340 17.3 102320 77
2009-07-01 09:48:10 51°27.318 2°54.658 11.5 340 17.3 102320 77
2009-07-01 09:48:16 51°27.339 2°54.657 10.7 338 17.3 102310 77
2009-07-01 09:48:21 51°27.356 2°54.657 10.6 339 17.3 102310 77
2009-07-01 09:48:26 51°27.374 2°54.657 12.1 338 17.3 102310 77
2009-07-01 09:48:30 51°27.387 2°54.657 11.6 281 17.3 102310 77
2009-07-01 09:48:36 51°27.408 2°54.656 11.6 339 17.3 102310 78
2009-07-01 09:48:41 51°27.425 2°54.657 10.7 341 17.3 102310 78
2009-07-01 09:48:46 51°27.443 2°54.656 11.8 339 17.3 102320 77
2009-07-01 09:48:51 51°27.46 2°54.656 11.7 339 17.3 102320 77
2009-07-01 09:48:56 51°27.477 2°54.656 13.2 339 17.3 102310 76
2009-07-01 09:49:01 51°27.495 2°54.656 11.9 341 17.3 102310 76
2009-07-01 09:49:06 51°27.512 2°54.656 12.9 341 17.3 102310 77
2009-07-01 09:49:11 51°27.529 2°54.656 11.2 341 17.3 102310 77
2009-07-01 09:49:15 51°27.543 2°54.656 11.1 340 17.3 102320 76
2009-07-01 09:49:21 51°27.564 2°54.656 12.5 342 17.3 102320 76
2009-07-01 09:49:26 51°27.581 2°54.656 12.8 342 17.3 102310 77
2009-07-01 09:49:31 51°27.598 2°54.656 11.7 342 17.3 102310 77
2009-07-01 09:49:37 51°27.619 2°54.656 11.2 342 17.3 102310 75
2009-07-01 09:49:42 51°27.636 2°54.656 11.1 342 17.3 102310 75
2009-07-01 09:49:46 51°27.65 2°54.656 12 342 17.3 102320 76
2009-07-01 09:49:51 51°27.668 2°54.656 11.7 343 17.3 102320 76
2009-07-01 09:49:56 51°27.685 2°54.656 11.3 344 17.3 102310 77
2009-07-01 09:50:02 51°27.706 2°54.657 11.3 344 17.3 102310 77
2009-07-01 09:50:06 51°27.72 2°54.657 11.3 343 17.2 102310 77
2009-07-01 09:50:11 51°27.737 2°54.657 10.2 343 17.2 102310 77
2009-07-01 09:50:16 51°27.755 2°54.657 9.9 344 17.2 102310 77
2009-07-01 09:50:21 51°27.772 2°54.657 8.9 343 17.2 102310 77
2009-07-01 09:50:26 51°27.79 2°54.657 9.3 344 17.2 102320 77
2009-07-01 09:50:30 51°27.804 2°54.657 9.3 284 17.2 102320 77
2009-07-01 09:50:36 51°27.825 2°54.657 9.2 343 17.2 102320 77
2009-07-01 09:50:41 51°27.843 2°54.658 10 344 17.2 102320 77
2009-07-01 09:50:46 51°27.86 2°54.658 9 342 17.2 102320 77
2009-07-01 09:50:50 51°27.874 2°54.659 10.5 343 17.2 102320 77
2009-07-01 09:50:56 51°27.895 2°54.66 10.4 344 17.2 102320 76
2009-07-01 09:51:02 51°27.916 2°54.66 10.3 343 17.2 102320 76
2009-07-01 09:51:06 51°27.93 2°54.66 9.4 343 17.2 102320 77
2009-07-01 09:51:10 51°27.944 2°54.66 9.6 344 17.2 102320 77
2009-07-01 09:51:16 51°27.965 2°54.66 10.7 342 17.2 102320 77
2009-07-01 09:51:22 51°27.987 2°54.66 9.5 339 17.2 102320 77
2009-07-01 09:51:26 51°28.001 2°54.66 10.8 339 17.2 102320 76
2009-07-01 09:51:30 51°28.014 2°54.661 11.5 280 17.2 102320 76
2009-07-01 09:51:36 51°28.036 2°54.661 11.2 339 17.1 102320 77
2009-07-01 09:51:42 51°28.057 2°54.662 11.6 337 17.1 102320 77
2009-07-01 09:51:46 51°28.071 2°54.663 13.5 339 17.2 102320 77
2009-07-01 09:51:50 51°28.085 2°54.663 12.7 339 17.2 102320 77
2009-07-01 09:51:56 51°28.106 2°54.663 12.2 339 17.2 102320 77
2009-07-01 09:52:02 51°28.127 2°54.664 11.3 337 17.2 102320 77
2009-07-01 09:52:06 51°28.141 2°54.665 13.1 339 17.2 102320 78
2009-07-01 09:52:10 51°28.155 2°54.665 11.8 337 17.2 102320 78
2009-07-01 09:52:16 51°28.176 2°54.665 13.1 338 17.2 102320 76
2009-07-01 09:52:21 51°28.193 2°54.665 13.1 338 17.2 102320 76
2009-07-01 09:52:26 51°28.211 2°54.666 13.1 338 17.2 102320 77
2009-07-01 09:52:31 51°28.228 2°54.666 12.8 340 17.2 102320 77
2009-07-01 09:52:36 51°28.245 2°54.666 12.1 339 17.2 102320 78
2009-07-01 09:52:41 51°28.263 2°54.666 12.2 339 17.2 102320 78
2009-07-01 09:52:46 51°28.28 2°54.667 12.5 339 17.2 102320 76
2009-07-01 09:52:51 51°28.298 2°54.667 10.5 340 17.2 102320 76
2009-07-01 09:52:56 51°28.315 2°54.668 10.8 341 17.2 102310 76
2009-07-01 09:53:01 51°28.333 2°54.669 11.1 341 17.2 102310 76
2009-07-01 09:53:06 51°28.35 2°54.67 10.6 340 17.2 102320 77
2009-07-01 09:53:11 51°28.368 2°54.67 11.6 341 17.2 102320 77
2009-07-01 09:53:16 51°28.385 2°54.671 11.3 342 17.2 102320 76
2009-07-01 09:53:21 51°28.403 2°54.672 11.1 340 17.2 102320 76
2009-07-01 09:53:26 51°28.42 2°54.672 12 339 17.2 102330 76
2009-07-01 09:53:31 51°28.438 2°54.673 10.2 278 17.2 102330 76
2009-07-01 09:53:35 51°28.452 2°54.674 9.6 341 17.2 102320 77
2009-07-01 09:53:41 51°28.473 2°54.674 11 343 17.2 102320 77